sensor_id;sensor_type;location;lat;lon;timestamp;temperature;humidity
35445;DHT22;21562;49.476;6.086;2022-08-19T00:01:26;27.00;90.00
35445;DHT22;21562;49.476;6.086;2022-08-19T00:03:52;27.00;89.60
35445;DHT22;21562;49.476;6.086;2022-08-19T00:06:18;26.90;88.60
35445;DHT22;21562;49.476;6.086;2022-08-19T00:08:44;26.90;90.00
35445;DHT22;21562;49.476;6.086;2022-08-19T00:11:10;27.00;90.00
35445;DHT22;21562;49.476;6.086;2022-08-19T00:13:36;27.00;89.70
35445;DHT22;21562;49.476;6.086;2022-08-19T00:16:03;26.90;90.00
35445;DHT22;21562;49.476;6.086;2022-08-19T00:18:31;26.90;89.90
35445;DHT22;21562;49.476;6.086;2022-08-19T00:20:57;26.90;90.00
35445;DHT22;21562;49.476;6.086;2022-08-19T00:23:23;27.00;89.70
35445;DHT22;21562;49.476;6.086;2022-08-19T00:25:48;27.10;89.60
35445;DHT22;21562;49.476;6.086;2022-08-19T00:28:14;27.20;89.40
35445;DHT22;21562;49.476;6.086;2022-08-19T00:30:40;27.10;88.40
35445;DHT22;21562;49.476;6.086;2022-08-19T00:33:06;27.10;89.50
35445;DHT22;21562;49.476;6.086;2022-08-19T00:35:33;27.10;89.50
35445;DHT22;21562;49.476;6.086;2022-08-19T00:37:59;27.00;89.90
35445;DHT22;21562;49.476;6.086;2022-08-19T00:40:25;27.00;89.70
35445;DHT22;21562;49.476;6.086;2022-08-19T00:42:51;27.10;89.50
35445;DHT22;21562;49.476;6.086;2022-08-19T00:45:21;27.20;89.40
35445;DHT22;21562;49.476;6.086;2022-08-19T00:47:47;27.20;89.00
35445;DHT22;21562;49.476;6.086;2022-08-19T00:50:15;27.10;89.40
35445;DHT22;21562;49.476;6.086;2022-08-19T00:52:44;27.00;89.90
35445;DHT22;21562;49.476;6.086;2022-08-19T00:55:15;26.90;89.80
35445;DHT22;21562;49.476;6.086;2022-08-19T00:57:46;26.80;89.40
35445;DHT22;21562;49.476;6.086;2022-08-19T01:00:17;26.80;90.00
35445;DHT22;21562;49.476;6.086;2022-08-19T01:02:43;26.90;89.80
35445;DHT22;21562;49.476;6.086;2022-08-19T01:05:16;27.00;88.90
35445;DHT22;21562;49.476;6.086;2022-08-19T01:07:43;27.00;89.40
35445;DHT22;21562;49.476;6.086;2022-08-19T01:10:12;26.50;90.10
35445;DHT22;21562;49.476;6.086;2022-08-19T01:12:39;26.50;90.40
35445;DHT22;21562;49.476;6.086;2022-08-19T01:15:08;26.60;90.30
35445;DHT22;21562;49.476;6.086;2022-08-19T01:17:36;26.60;90.00
35445;DHT22;21562;49.476;6.086;2022-08-19T01:20:05;26.70;90.40
35445;DHT22;21562;49.476;6.086;2022-08-19T01:25:01;25.70;91.40
35445;DHT22;21562;49.476;6.086;2022-08-19T01:27:39;25.90;91.20
35445;DHT22;21562;49.476;6.086;2022-08-19T01:30:06;26.10;91.10
35445;DHT22;21562;49.476;6.086;2022-08-19T01:32:33;26.40;90.80
35445;DHT22;21562;49.476;6.086;2022-08-19T01:34:58;26.40;90.60
35445;DHT22;21562;49.476;6.086;2022-08-19T01:37:27;26.50;90.60
35445;DHT22;21562;49.476;6.086;2022-08-19T01:39:53;26.60;90.80
35445;DHT22;21562;49.476;6.086;2022-08-19T01:42:18;26.70;90.40
35445;DHT22;21562;49.476;6.086;2022-08-19T01:44:45;26.80;90.30
35445;DHT22;21562;49.476;6.086;2022-08-19T01:47:10;26.80;90.20
35445;DHT22;21562;49.476;6.086;2022-08-19T01:49:37;26.80;90.20
35445;DHT22;21562;49.476;6.086;2022-08-19T01:52:04;26.90;90.20
35445;DHT22;21562;49.476;6.086;2022-08-19T01:54:30;26.90;90.10
35445;DHT22;21562;49.476;6.086;2022-08-19T01:57:00;26.90;89.70
35445;DHT22;21562;49.476;6.086;2022-08-19T01:59:26;26.80;89.30
35445;DHT22;21562;49.476;6.086;2022-08-19T02:01:53;26.80;90.20
35445;DHT22;21562;49.476;6.086;2022-08-19T02:04:18;26.80;90.10
35445;DHT22;21562;49.476;6.086;2022-08-19T02:06:44;26.80;90.10
35445;DHT22;21562;49.476;6.086;2022-08-19T02:09:10;26.90;90.10
35445;DHT22;21562;49.476;6.086;2022-08-19T02:11:36;26.90;90.00
35445;DHT22;21562;49.476;6.086;2022-08-19T02:14:05;26.90;90.00
35445;DHT22;21562;49.476;6.086;2022-08-19T02:16:32;26.90;90.00
35445;DHT22;21562;49.476;6.086;2022-08-19T02:18:58;26.90;90.30
35445;DHT22;21562;49.476;6.086;2022-08-19T02:21:26;27.00;90.00
35445;DHT22;21562;49.476;6.086;2022-08-19T02:23:52;27.00;90.00
35445;DHT22;21562;49.476;6.086;2022-08-19T02:26:17;27.00;89.90
35445;DHT22;21562;49.476;6.086;2022-08-19T02:28:44;27.00;89.90
35445;DHT22;21562;49.476;6.086;2022-08-19T02:31:15;27.00;90.00
35445;DHT22;21562;49.476;6.086;2022-08-19T02:33:41;26.20;91.00
35445;DHT22;21562;49.476;6.086;2022-08-19T02:36:08;25.20;91.60
35445;DHT22;21562;49.476;6.086;2022-08-19T02:38:34;24.70;93.20
35445;DHT22;21562;49.476;6.086;2022-08-19T02:41:06;25.10;92.60
35445;DHT22;21562;49.476;6.086;2022-08-19T02:43:33;25.40;92.20
35445;DHT22;21562;49.476;6.086;2022-08-19T02:46:11;25.70;92.10
35445;DHT22;21562;49.476;6.086;2022-08-19T02:48:37;26.00;91.50
35445;DHT22;21562;49.476;6.086;2022-08-19T02:51:02;26.20;91.20
35445;DHT22;21562;49.476;6.086;2022-08-19T02:53:28;26.40;91.00
35445;DHT22;21562;49.476;6.086;2022-08-19T02:55:55;26.40;90.50
35445;DHT22;21562;49.476;6.086;2022-08-19T02:58:21;25.00;92.70
35445;DHT22;21562;49.476;6.086;2022-08-19T03:00:52;25.00;92.30
35445;DHT22;21562;49.476;6.086;2022-08-19T03:03:18;25.00;92.60
35445;DHT22;21562;49.476;6.086;2022-08-19T03:05:45;24.70;93.00
35445;DHT22;21562;49.476;6.086;2022-08-19T03:08:12;24.20;93.90
35445;DHT22;21562;49.476;6.086;2022-08-19T03:10:46;24.20;94.20
35445;DHT22;21562;49.476;6.086;2022-08-19T03:13:14;24.60;94.00
35445;DHT22;21562;49.476;6.086;2022-08-19T03:15:42;25.00;93.40
35445;DHT22;21562;49.476;6.086;2022-08-19T03:18:08;25.30;92.80
35445;DHT22;21562;49.476;6.086;2022-08-19T03:20:34;25.30;92.40
35445;DHT22;21562;49.476;6.086;2022-08-19T03:23:04;25.10;93.20
35445;DHT22;21562;49.476;6.086;2022-08-19T03:25:30;25.00;93.20
35445;DHT22;21562;49.476;6.086;2022-08-19T03:27:55;24.70;93.50
35445;DHT22;21562;49.476;6.086;2022-08-19T03:30:21;25.00;93.50
35445;DHT22;21562;49.476;6.086;2022-08-19T03:32:47;25.00;93.30
35445;DHT22;21562;49.476;6.086;2022-08-19T03:35:12;25.00;93.20
35445;DHT22;21562;49.476;6.086;2022-08-19T03:37:38;25.00;92.90
35445;DHT22;21562;49.476;6.086;2022-08-19T03:40:04;24.90;94.00
35445;DHT22;21562;49.476;6.086;2022-08-19T03:42:30;25.20;93.40
35445;DHT22;21562;49.476;6.086;2022-08-19T03:44:55;25.40;92.80
35445;DHT22;21562;49.476;6.086;2022-08-19T03:47:21;25.70;92.50
35445;DHT22;21562;49.476;6.086;2022-08-19T03:49:46;25.90;92.30
35445;DHT22;21562;49.476;6.086;2022-08-19T03:52:12;26.00;92.10
35445;DHT22;21562;49.476;6.086;2022-08-19T03:54:38;26.20;91.90
35445;DHT22;21562;49.476;6.086;2022-08-19T03:57:05;26.30;91.70
35445;DHT22;21562;49.476;6.086;2022-08-19T03:59:34;26.40;91.60
35445;DHT22;21562;49.476;6.086;2022-08-19T04:02:06;26.50;91.50
35445;DHT22;21562;49.476;6.086;2022-08-19T04:04:34;26.50;91.40
35445;DHT22;21562;49.476;6.086;2022-08-19T04:07:00;26.50;91.40
35445;DHT22;21562;49.476;6.086;2022-08-19T04:09:25;26.60;91.40
35445;DHT22;21562;49.476;6.086;2022-08-19T04:11:54;26.60;91.30
35445;DHT22;21562;49.476;6.086;2022-08-19T04:14:22;26.30;91.40
35445;DHT22;21562;49.476;6.086;2022-08-19T04:16:49;25.50;92.20
35445;DHT22;21562;49.476;6.086;2022-08-19T04:19:17;24.70;93.80
35445;DHT22;21562;49.476;6.086;2022-08-19T04:21:48;24.80;93.50
35445;DHT22;21562;49.476;6.086;2022-08-19T04:24:14;25.10;93.70
35445;DHT22;21562;49.476;6.086;2022-08-19T04:26:40;25.40;93.40
35445;DHT22;21562;49.476;6.086;2022-08-19T04:29:13;25.70;93.10
35445;DHT22;21562;49.476;6.086;2022-08-19T04:31:40;25.90;92.50
35445;DHT22;21562;49.476;6.086;2022-08-19T04:34:09;26.10;92.30
35445;DHT22;21562;49.476;6.086;2022-08-19T04:36:38;26.20;92.30
35445;DHT22;21562;49.476;6.086;2022-08-19T04:39:11;26.40;92.70
35445;DHT22;21562;49.476;6.086;2022-08-19T04:41:37;26.40;92.60
35445;DHT22;21562;49.476;6.086;2022-08-19T04:44:21;26.50;92.50
35445;DHT22;21562;49.476;6.086;2022-08-19T04:46:49;26.60;92.40
35445;DHT22;21562;49.476;6.086;2022-08-19T04:49:16;26.70;92.10
35445;DHT22;21562;49.476;6.086;2022-08-19T04:51:44;26.30;92.60
35445;DHT22;21562;49.476;6.086;2022-08-19T04:54:11;25.50;93.30
35445;DHT22;21562;49.476;6.086;2022-08-19T04:56:37;25.70;93.30
35445;DHT22;21562;49.476;6.086;2022-08-19T04:59:03;25.60;93.70
35445;DHT22;21562;49.476;6.086;2022-08-19T05:01:31;25.70;93.40
35445;DHT22;21562;49.476;6.086;2022-08-19T05:03:59;25.90;93.10
35445;DHT22;21562;49.476;6.086;2022-08-19T05:06:26;26.10;92.90
35445;DHT22;21562;49.476;6.086;2022-08-19T05:08:54;26.30;92.70
35445;DHT22;21562;49.476;6.086;2022-08-19T05:11:23;26.40;92.50
35445;DHT22;21562;49.476;6.086;2022-08-19T05:13:49;26.40;92.50
35445;DHT22;21562;49.476;6.086;2022-08-19T05:16:19;26.40;92.40
35445;DHT22;21562;49.476;6.086;2022-08-19T05:18:46;26.10;92.30
35445;DHT22;21562;49.476;6.086;2022-08-19T05:21:32;25.50;93.70
35445;DHT22;21562;49.476;6.086;2022-08-19T05:24:17;25.40;93.50
35445;DHT22;21562;49.476;6.086;2022-08-19T05:26:45;25.20;94.20
35445;DHT22;21562;49.476;6.086;2022-08-19T05:29:12;25.10;94.10
35445;DHT22;21562;49.476;6.086;2022-08-19T05:31:38;25.20;93.30
35445;DHT22;21562;49.476;6.086;2022-08-19T05:34:05;25.30;94.00
35445;DHT22;21562;49.476;6.086;2022-08-19T05:36:35;25.50;93.00
35445;DHT22;21562;49.476;6.086;2022-08-19T05:39:02;25.20;94.40
35445;DHT22;21562;49.476;6.086;2022-08-19T05:41:28;25.50;93.90
35445;DHT22;21562;49.476;6.086;2022-08-19T05:44:01;25.90;93.50
35445;DHT22;21562;49.476;6.086;2022-08-19T05:46:27;26.20;92.90
35445;DHT22;21562;49.476;6.086;2022-08-19T05:48:52;26.30;92.90
35445;DHT22;21562;49.476;6.086;2022-08-19T05:51:22;26.40;92.70
35445;DHT22;21562;49.476;6.086;2022-08-19T05:53:47;26.50;92.40
35445;DHT22;21562;49.476;6.086;2022-08-19T05:56:15;26.60;92.50
35445;DHT22;21562;49.476;6.086;2022-08-19T05:58:44;26.60;92.40
35445;DHT22;21562;49.476;6.086;2022-08-19T06:01:15;26.60;92.30
35445;DHT22;21562;49.476;6.086;2022-08-19T06:03:41;26.70;92.20
35445;DHT22;21562;49.476;6.086;2022-08-19T06:06:09;26.80;92.10
35445;DHT22;21562;49.476;6.086;2022-08-19T06:08:35;26.80;92.10
35445;DHT22;21562;49.476;6.086;2022-08-19T06:11:28;26.80;92.10
35445;DHT22;21562;49.476;6.086;2022-08-19T06:13:59;26.70;92.10
35445;DHT22;21562;49.476;6.086;2022-08-19T06:16:26;26.10;92.60
35445;DHT22;21562;49.476;6.086;2022-08-19T06:18:53;25.70;94.10
35445;DHT22;21562;49.476;6.086;2022-08-19T06:21:23;25.30;94.00
35445;DHT22;21562;49.476;6.086;2022-08-19T06:23:49;25.10;94.40
35445;DHT22;21562;49.476;6.086;2022-08-19T06:26:18;24.70;94.90
35445;DHT22;21562;49.476;6.086;2022-08-19T06:28:44;24.10;95.90
35445;DHT22;21562;49.476;6.086;2022-08-19T06:31:21;23.90;97.10
35445;DHT22;21562;49.476;6.086;2022-08-19T06:33:48;23.80;97.20
35445;DHT22;21562;49.476;6.086;2022-08-19T06:38:43;23.00;99.90
35445;DHT22;21562;49.476;6.086;2022-08-19T06:41:09;22.50;99.90
35445;DHT22;21562;49.476;6.086;2022-08-19T06:43:35;22.80;99.90
35445;DHT22;21562;49.476;6.086;2022-08-19T06:46:02;22.90;99.90
35445;DHT22;21562;49.476;6.086;2022-08-19T06:48:29;23.40;99.90
35445;DHT22;21562;49.476;6.086;2022-08-19T06:50:55;23.90;99.90
35445;DHT22;21562;49.476;6.086;2022-08-19T06:53:21;24.00;99.90
35445;DHT22;21562;49.476;6.086;2022-08-19T06:55:47;24.30;99.90
35445;DHT22;21562;49.476;6.086;2022-08-19T06:58:12;24.50;99.60
35445;DHT22;21562;49.476;6.086;2022-08-19T07:00:39;24.70;99.00
35445;DHT22;21562;49.476;6.086;2022-08-19T07:03:05;24.80;98.10
35445;DHT22;21562;49.476;6.086;2022-08-19T07:05:30;24.70;99.50
35445;DHT22;21562;49.476;6.086;2022-08-19T07:07:56;25.00;98.50
35445;DHT22;21562;49.476;6.086;2022-08-19T07:10:22;25.20;97.90
35445;DHT22;21562;49.476;6.086;2022-08-19T07:12:48;25.50;97.40
35445;DHT22;21562;49.476;6.086;2022-08-19T07:15:15;25.50;96.60
35445;DHT22;21562;49.476;6.086;2022-08-19T07:17:41;25.40;97.30
35445;DHT22;21562;49.476;6.086;2022-08-19T07:20:09;25.40;97.20
35445;DHT22;21562;49.476;6.086;2022-08-19T07:22:35;25.50;96.80
35445;DHT22;21562;49.476;6.086;2022-08-19T07:25:01;24.80;98.70
35445;DHT22;21562;49.476;6.086;2022-08-19T07:27:29;25.00;98.20
35445;DHT22;21562;49.476;6.086;2022-08-19T07:29:55;25.20;97.70
35445;DHT22;21562;49.476;6.086;2022-08-19T07:32:20;25.40;97.20
35445;DHT22;21562;49.476;6.086;2022-08-19T07:34:46;25.50;97.60
35445;DHT22;21562;49.476;6.086;2022-08-19T07:37:12;25.60;96.90
35445;DHT22;21562;49.476;6.086;2022-08-19T07:39:38;25.90;96.30
35445;DHT22;21562;49.476;6.086;2022-08-19T07:42:07;26.00;95.90
35445;DHT22;21562;49.476;6.086;2022-08-19T07:44:34;26.30;95.90
35445;DHT22;21562;49.476;6.086;2022-08-19T07:47:00;26.50;95.60
35445;DHT22;21562;49.476;6.086;2022-08-19T07:49:26;26.70;95.30
35445;DHT22;21562;49.476;6.086;2022-08-19T07:51:56;26.80;95.30
35445;DHT22;21562;49.476;6.086;2022-08-19T07:54:25;26.80;95.20
35445;DHT22;21562;49.476;6.086;2022-08-19T07:56:50;27.00;95.00
35445;DHT22;21562;49.476;6.086;2022-08-19T07:59:17;27.00;94.90
35445;DHT22;21562;49.476;6.086;2022-08-19T08:01:44;27.10;94.80
35445;DHT22;21562;49.476;6.086;2022-08-19T08:04:10;27.30;94.50
35445;DHT22;21562;49.476;6.086;2022-08-19T08:06:54;27.30;94.50
35445;DHT22;21562;49.476;6.086;2022-08-19T08:09:41;27.20;94.80
35445;DHT22;21562;49.476;6.086;2022-08-19T08:12:25;27.10;94.80
35445;DHT22;21562;49.476;6.086;2022-08-19T08:14:57;27.10;94.90
35445;DHT22;21562;49.476;6.086;2022-08-19T08:17:25;27.30;94.70
35445;DHT22;21562;49.476;6.086;2022-08-19T08:19:53;27.30;94.50
35445;DHT22;21562;49.476;6.086;2022-08-19T08:22:21;27.30;94.60
35445;DHT22;21562;49.476;6.086;2022-08-19T08:25:07;27.50;94.30
35445;DHT22;21562;49.476;6.086;2022-08-19T08:27:38;27.60;93.90
35445;DHT22;21562;49.476;6.086;2022-08-19T08:30:09;27.40;94.30
35445;DHT22;21562;49.476;6.086;2022-08-19T08:32:39;27.40;94.40
35445;DHT22;21562;49.476;6.086;2022-08-19T08:35:07;27.50;94.30
35445;DHT22;21562;49.476;6.086;2022-08-19T08:37:33;27.60;94.10
35445;DHT22;21562;49.476;6.086;2022-08-19T08:40:02;27.00;94.60
35445;DHT22;21562;49.476;6.086;2022-08-19T08:42:32;27.10;94.60
35445;DHT22;21562;49.476;6.086;2022-08-19T08:44:59;27.20;94.40
35445;DHT22;21562;49.476;6.086;2022-08-19T08:47:30;27.30;94.60
35445;DHT22;21562;49.476;6.086;2022-08-19T08:50:34;27.20;94.40
35445;DHT22;21562;49.476;6.086;2022-08-19T08:53:02;27.40;94.50
35445;DHT22;21562;49.476;6.086;2022-08-19T08:55:30;27.60;94.20
35445;DHT22;21562;49.476;6.086;2022-08-19T08:58:06;27.90;94.10
35445;DHT22;21562;49.476;6.086;2022-08-19T09:00:39;28.00;93.30
35445;DHT22;21562;49.476;6.086;2022-08-19T09:03:23;28.10;93.10
35445;DHT22;21562;49.476;6.086;2022-08-19T09:06:14;28.00;93.10
35445;DHT22;21562;49.476;6.086;2022-08-19T09:08:59;28.30;93.00
35445;DHT22;21562;49.476;6.086;2022-08-19T09:14:37;27.70;92.90
35445;DHT22;21562;49.476;6.086;2022-08-19T09:17:07;27.60;93.20
35445;DHT22;21562;49.476;6.086;2022-08-19T09:19:36;27.70;93.00
35445;DHT22;21562;49.476;6.086;2022-08-19T09:22:11;27.20;93.20
35445;DHT22;21562;49.476;6.086;2022-08-19T09:24:37;25.90;94.70
35445;DHT22;21562;49.476;6.086;2022-08-19T09:27:03;25.90;95.00
35445;DHT22;21562;49.476;6.086;2022-08-19T09:29:29;26.30;95.00
35445;DHT22;21562;49.476;6.086;2022-08-19T09:31:55;26.30;94.50
35445;DHT22;21562;49.476;6.086;2022-08-19T09:34:21;25.90;94.70
35445;DHT22;21562;49.476;6.086;2022-08-19T09:36:47;25.40;94.70
35445;DHT22;21562;49.476;6.086;2022-08-19T09:39:18;25.30;95.40
35445;DHT22;21562;49.476;6.086;2022-08-19T09:41:44;25.30;95.30
35445;DHT22;21562;49.476;6.086;2022-08-19T09:44:09;25.30;94.60
35445;DHT22;21562;49.476;6.086;2022-08-19T09:46:38;25.40;94.70
35445;DHT22;21562;49.476;6.086;2022-08-19T09:49:03;25.30;95.20
35445;DHT22;21562;49.476;6.086;2022-08-19T09:51:31;25.50;95.00
35445;DHT22;21562;49.476;6.086;2022-08-19T09:54:00;25.30;94.50
35445;DHT22;21562;49.476;6.086;2022-08-19T09:56:27;25.00;95.30
35445;DHT22;21562;49.476;6.086;2022-08-19T09:58:53;25.00;95.90
35445;DHT22;21562;49.476;6.086;2022-08-19T10:01:25;24.80;95.80
35445;DHT22;21562;49.476;6.086;2022-08-19T10:03:56;24.80;96.20
35445;DHT22;21562;49.476;6.086;2022-08-19T10:06:24;25.00;95.50
35445;DHT22;21562;49.476;6.086;2022-08-19T10:08:51;25.00;95.50
35445;DHT22;21562;49.476;6.086;2022-08-19T10:11:19;25.30;95.70
35445;DHT22;21562;49.476;6.086;2022-08-19T10:13:45;25.30;94.90
35445;DHT22;21562;49.476;6.086;2022-08-19T10:16:15;25.60;94.90
35445;DHT22;21562;49.476;6.086;2022-08-19T10:18:42;25.90;94.00
35445;DHT22;21562;49.476;6.086;2022-08-19T10:21:16;25.40;94.80
35445;DHT22;21562;49.476;6.086;2022-08-19T10:23:45;25.30;95.10
35445;DHT22;21562;49.476;6.086;2022-08-19T10:26:18;25.30;95.30
35445;DHT22;21562;49.476;6.086;2022-08-19T10:28:44;25.20;95.10
35445;DHT22;21562;49.476;6.086;2022-08-19T10:31:14;25.40;95.30
35445;DHT22;21562;49.476;6.086;2022-08-19T10:33:40;25.30;95.60
35445;DHT22;21562;49.476;6.086;2022-08-19T10:36:13;24.80;96.40
35445;DHT22;21562;49.476;6.086;2022-08-19T10:38:44;25.20;96.40
35445;DHT22;21562;49.476;6.086;2022-08-19T10:41:15;25.30;95.70
35445;DHT22;21562;49.476;6.086;2022-08-19T10:43:42;25.10;95.60
35445;DHT22;21562;49.476;6.086;2022-08-19T10:46:12;25.20;96.20
35445;DHT22;21562;49.476;6.086;2022-08-19T10:48:38;25.40;95.60
35445;DHT22;21562;49.476;6.086;2022-08-19T10:51:04;25.30;95.80
35445;DHT22;21562;49.476;6.086;2022-08-19T10:53:49;25.20;96.00
35445;DHT22;21562;49.476;6.086;2022-08-19T10:56:15;25.50;95.60
35445;DHT22;21562;49.476;6.086;2022-08-19T10:59:00;25.30;95.50
35445;DHT22;21562;49.476;6.086;2022-08-19T11:01:28;25.30;95.80
35445;DHT22;21562;49.476;6.086;2022-08-19T11:03:55;25.30;95.60
35445;DHT22;21562;49.476;6.086;2022-08-19T11:06:23;25.70;94.90
35445;DHT22;21562;49.476;6.086;2022-08-19T11:08:51;26.00;94.70
35445;DHT22;21562;49.476;6.086;2022-08-19T11:11:17;25.80;95.30
35445;DHT22;21562;49.476;6.086;2022-08-19T11:13:43;25.60;95.00
35445;DHT22;21562;49.476;6.086;2022-08-19T11:16:20;25.70;94.90
35445;DHT22;21562;49.476;6.086;2022-08-19T11:18:51;26.00;94.50
35445;DHT22;21562;49.476;6.086;2022-08-19T11:21:19;25.50;94.40
35445;DHT22;21562;49.476;6.086;2022-08-19T11:23:47;25.30;94.50
35445;DHT22;21562;49.476;6.086;2022-08-19T11:26:13;24.80;94.60
35445;DHT22;21562;49.476;6.086;2022-08-19T11:28:40;24.50;93.20
35445;DHT22;21562;49.476;6.086;2022-08-19T11:31:20;24.40;92.90
35445;DHT22;21562;49.476;6.086;2022-08-19T11:33:47;24.50;91.60
35445;DHT22;21562;49.476;6.086;2022-08-19T11:36:16;25.00;90.90
35445;DHT22;21562;49.476;6.086;2022-08-19T11:38:44;25.20;90.70
35445;DHT22;21562;49.476;6.086;2022-08-19T11:41:10;25.20;91.20
35445;DHT22;21562;49.476;6.086;2022-08-19T11:43:37;25.20;90.90
35445;DHT22;21562;49.476;6.086;2022-08-19T11:46:07;25.20;91.30
35445;DHT22;21562;49.476;6.086;2022-08-19T11:48:34;25.20;92.00
35445;DHT22;21562;49.476;6.086;2022-08-19T11:51:04;25.30;91.70
35445;DHT22;21562;49.476;6.086;2022-08-19T11:53:31;25.00;89.40
35445;DHT22;21562;49.476;6.086;2022-08-19T11:55:58;25.20;88.80
35445;DHT22;21562;49.476;6.086;2022-08-19T11:58:24;25.30;86.20
35445;DHT22;21562;49.476;6.086;2022-08-19T12:00:50;25.50;84.60
35445;DHT22;21562;49.476;6.086;2022-08-19T12:03:16;26.10;85.30
35445;DHT22;21562;49.476;6.086;2022-08-19T12:05:42;26.00;86.50
35445;DHT22;21562;49.476;6.086;2022-08-19T12:08:08;25.90;87.20
35445;DHT22;21562;49.476;6.086;2022-08-19T12:10:34;26.00;85.70
35445;DHT22;21562;49.476;6.086;2022-08-19T12:13:00;25.90;85.90
35445;DHT22;21562;49.476;6.086;2022-08-19T12:15:27;25.70;87.30
35445;DHT22;21562;49.476;6.086;2022-08-19T12:17:54;25.60;88.30
35445;DHT22;21562;49.476;6.086;2022-08-19T12:20:23;25.70;90.40
35445;DHT22;21562;49.476;6.086;2022-08-19T12:22:49;26.10;91.10
35445;DHT22;21562;49.476;6.086;2022-08-19T12:25:15;26.20;90.80
35445;DHT22;21562;49.476;6.086;2022-08-19T12:27:41;26.40;90.70
35445;DHT22;21562;49.476;6.086;2022-08-19T12:30:09;26.00;91.60
35445;DHT22;21562;49.476;6.086;2022-08-19T12:32:35;26.10;91.70
35445;DHT22;21562;49.476;6.086;2022-08-19T12:35:01;25.60;92.20
35445;DHT22;21562;49.476;6.086;2022-08-19T12:37:27;25.50;92.70
35445;DHT22;21562;49.476;6.086;2022-08-19T12:39:52;25.50;93.10
35445;DHT22;21562;49.476;6.086;2022-08-19T12:42:18;25.70;92.50
35445;DHT22;21562;49.476;6.086;2022-08-19T12:44:44;25.40;93.10
35445;DHT22;21562;49.476;6.086;2022-08-19T12:47:12;25.80;93.10
35445;DHT22;21562;49.476;6.086;2022-08-19T12:49:39;25.80;92.90
35445;DHT22;21562;49.476;6.086;2022-08-19T12:52:07;26.10;92.30
35445;DHT22;21562;49.476;6.086;2022-08-19T12:54:34;25.60;92.80
35445;DHT22;21562;49.476;6.086;2022-08-19T12:57:04;25.60;93.10
35445;DHT22;21562;49.476;6.086;2022-08-19T12:59:30;25.80;93.30
35445;DHT22;21562;49.476;6.086;2022-08-19T13:01:55;25.90;93.00
35445;DHT22;21562;49.476;6.086;2022-08-19T13:04:21;25.70;93.40
35445;DHT22;21562;49.476;6.086;2022-08-19T13:06:47;25.50;94.00
35445;DHT22;21562;49.476;6.086;2022-08-19T13:09:12;25.90;93.40
35445;DHT22;21562;49.476;6.086;2022-08-19T13:11:38;25.90;93.20
35445;DHT22;21562;49.476;6.086;2022-08-19T13:14:04;25.90;93.40
35445;DHT22;21562;49.476;6.086;2022-08-19T13:16:30;26.20;93.20
35445;DHT22;21562;49.476;6.086;2022-08-19T13:18:57;26.10;93.50
35445;DHT22;21562;49.476;6.086;2022-08-19T13:21:26;26.10;93.30
35445;DHT22;21562;49.476;6.086;2022-08-19T13:23:53;26.10;93.30
35445;DHT22;21562;49.476;6.086;2022-08-19T13:26:20;26.20;93.40
35445;DHT22;21562;49.476;6.086;2022-08-19T13:28:46;26.50;92.90
35445;DHT22;21562;49.476;6.086;2022-08-19T13:31:32;26.40;93.10
35445;DHT22;21562;49.476;6.086;2022-08-19T13:34:19;26.60;93.00
35445;DHT22;21562;49.476;6.086;2022-08-19T13:36:52;27.20;92.20
35445;DHT22;21562;49.476;6.086;2022-08-19T13:39:18;27.40;91.90
35445;DHT22;21562;49.476;6.086;2022-08-19T13:41:45;27.10;92.30
35445;DHT22;21562;49.476;6.086;2022-08-19T13:44:15;26.40;92.90
35445;DHT22;21562;49.476;6.086;2022-08-19T13:46:44;26.50;92.90
35445;DHT22;21562;49.476;6.086;2022-08-19T13:49:11;26.80;93.00
35445;DHT22;21562;49.476;6.086;2022-08-19T13:51:38;26.70;92.90
35445;DHT22;21562;49.476;6.086;2022-08-19T13:54:08;26.40;93.70
35445;DHT22;21562;49.476;6.086;2022-08-19T13:56:34;26.40;93.40
35445;DHT22;21562;49.476;6.086;2022-08-19T13:59:01;26.30;93.80
35445;DHT22;21562;49.476;6.086;2022-08-19T14:01:27;26.50;93.50
35445;DHT22;21562;49.476;6.086;2022-08-19T14:03:53;27.10;92.80
35445;DHT22;21562;49.476;6.086;2022-08-19T14:06:19;27.20;92.70
35445;DHT22;21562;49.476;6.086;2022-08-19T14:08:45;26.60;93.50
35445;DHT22;21562;49.476;6.086;2022-08-19T14:11:11;26.40;93.70
35445;DHT22;21562;49.476;6.086;2022-08-19T14:13:37;26.30;94.00
35445;DHT22;21562;49.476;6.086;2022-08-19T14:16:11;26.20;94.40
35445;DHT22;21562;49.476;6.086;2022-08-19T14:18:37;26.30;94.20
35445;DHT22;21562;49.476;6.086;2022-08-19T14:21:04;26.40;94.00
35445;DHT22;21562;49.476;6.086;2022-08-19T14:23:31;26.20;94.30
35445;DHT22;21562;49.476;6.086;2022-08-19T14:26:10;26.20;94.60
35445;DHT22;21562;49.476;6.086;2022-08-19T14:28:37;26.20;94.70
35445;DHT22;21562;49.476;6.086;2022-08-19T14:31:04;26.70;94.10
35445;DHT22;21562;49.476;6.086;2022-08-19T14:33:30;27.10;93.90
35445;DHT22;21562;49.476;6.086;2022-08-19T14:35:57;26.90;93.90
35445;DHT22;21562;49.476;6.086;2022-08-19T14:38:23;26.80;93.80
35445;DHT22;21562;49.476;6.086;2022-08-19T14:40:49;26.80;93.70
35445;DHT22;21562;49.476;6.086;2022-08-19T14:43:14;26.30;93.90
35445;DHT22;21562;49.476;6.086;2022-08-19T14:45:40;26.20;94.60
35445;DHT22;21562;49.476;6.086;2022-08-19T14:48:07;26.30;94.50
35445;DHT22;21562;49.476;6.086;2022-08-19T14:50:34;26.00;94.70
35445;DHT22;21562;49.476;6.086;2022-08-19T14:53:04;25.90;95.30
35445;DHT22;21562;49.476;6.086;2022-08-19T14:55:31;25.90;95.30
35445;DHT22;21562;49.476;6.086;2022-08-19T14:57:57;26.10;95.20
35445;DHT22;21562;49.476;6.086;2022-08-19T15:00:23;26.20;95.10
35445;DHT22;21562;49.476;6.086;2022-08-19T15:02:50;25.60;96.00
35445;DHT22;21562;49.476;6.086;2022-08-19T15:05:16;25.70;96.00
35445;DHT22;21562;49.476;6.086;2022-08-19T15:07:42;25.80;96.30
35445;DHT22;21562;49.476;6.086;2022-08-19T15:10:09;25.30;97.30
35445;DHT22;21562;49.476;6.086;2022-08-19T15:12:37;25.00;98.30
35445;DHT22;21562;49.476;6.086;2022-08-19T15:15:06;25.10;98.60
35445;DHT22;21562;49.476;6.086;2022-08-19T15:17:32;25.60;98.10
35445;DHT22;21562;49.476;6.086;2022-08-19T15:19:58;25.60;97.90
35445;DHT22;21562;49.476;6.086;2022-08-19T15:22:24;25.40;98.00
35445;DHT22;21562;49.476;6.086;2022-08-19T15:24:49;25.40;98.20
35445;DHT22;21562;49.476;6.086;2022-08-19T15:27:15;25.50;98.40
35445;DHT22;21562;49.476;6.086;2022-08-19T15:29:41;25.50;97.90
35445;DHT22;21562;49.476;6.086;2022-08-19T15:32:07;25.50;98.10
35445;DHT22;21562;49.476;6.086;2022-08-19T15:34:34;25.70;97.90
35445;DHT22;21562;49.476;6.086;2022-08-19T15:37:00;26.00;97.50
35445;DHT22;21562;49.476;6.086;2022-08-19T15:39:27;25.90;97.70
35445;DHT22;21562;49.476;6.086;2022-08-19T15:41:52;25.90;97.70
35445;DHT22;21562;49.476;6.086;2022-08-19T15:44:19;26.00;97.60